createdAt,value
2019-03-22T00:01:25.503Z,10.60
2019-03-22T00:03:56.368Z,10.83
2019-03-22T00:06:26.318Z,10.68
2019-03-22T00:08:57.103Z,11.37
2019-03-22T00:11:27.967Z,10.67
2019-03-22T00:13:58.836Z,9.97
2019-03-22T00:16:29.707Z,10.77
2019-03-22T00:19:00.583Z,10.40
2019-03-22T00:21:31.431Z,10.57
2019-03-22T00:24:02.313Z,10.60
2019-03-22T00:26:33.345Z,10.10
2019-03-22T00:29:04.232Z,10.23
2019-03-22T00:31:35.078Z,11.50
2019-03-22T00:34:05.954Z,10.67
2019-03-22T00:36:36.810Z,9.90
2019-03-22T00:39:08.044Z,11.20
2019-03-22T00:41:38.901Z,11.03
2019-03-22T00:44:08.906Z,11.20
2019-03-22T00:46:39.675Z,11.30
2019-03-22T00:49:09.647Z,11.77
2019-03-22T00:51:40.444Z,11.60
2019-03-22T00:54:10.399Z,11.97
2019-03-22T00:56:40.245Z,9.13
2019-03-22T00:59:11.136Z,9.87
2019-03-22T01:01:41.949Z,10.17
2019-03-22T01:04:16.170Z,9.47
2019-03-22T01:06:46.716Z,9.77
2019-03-22T01:09:16.643Z,9.87
2019-03-22T01:11:47.441Z,9.83
2019-03-22T01:14:18.200Z,9.17
2019-03-22T01:16:48.099Z,9.10
2019-03-22T01:19:18.854Z,9.40
2019-03-22T01:21:49.731Z,8.83
2019-03-22T01:24:19.686Z,8.87
2019-03-22T01:26:49.534Z,8.20
2019-03-22T01:29:20.292Z,7.73
2019-03-22T01:31:51.160Z,8.07
2019-03-22T01:34:22.027Z,8.40
2019-03-22T01:36:53.080Z,7.87
2019-03-22T01:39:24.031Z,7.90
2019-03-22T01:41:54.869Z,7.60
2019-03-22T01:44:25.719Z,8.07
2019-03-22T01:46:56.585Z,7.60
2019-03-22T01:49:27.439Z,7.20
2019-03-22T01:51:58.308Z,8.07
2019-03-22T01:54:29.151Z,6.93
2019-03-22T01:56:59.093Z,7.07
2019-03-22T01:59:29.847Z,7.30
2019-03-22T02:02:00.799Z,7.30
2019-03-22T02:04:31.651Z,7.80
2019-03-22T02:07:02.519Z,7.17
2019-03-22T02:09:33.366Z,7.10
2019-03-22T02:12:04.239Z,7.80
2019-03-22T02:14:35.075Z,7.55
2019-03-22T02:17:05.951Z,8.07
2019-03-22T02:19:35.872Z,8.07
2019-03-22T02:22:06.659Z,9.43
2019-03-22T02:24:37.504Z,10.18
2019-03-22T02:27:08.388Z,9.67
2019-03-22T02:29:38.327Z,10.63
2019-03-22T02:32:09.115Z,12.13
2019-03-22T02:34:39.964Z,10.07
2019-03-22T02:37:10.848Z,11.10
2019-03-22T02:39:41.846Z,12.00
2019-03-22T02:42:12.950Z,12.30
2019-03-22T02:44:43.900Z,12.00
2019-03-22T02:47:14.751Z,12.37
2019-03-22T02:49:45.660Z,12.70
2019-03-22T02:52:16.512Z,12.03
2019-03-22T02:54:47.390Z,12.70
2019-03-22T02:57:18.239Z,13.70
2019-03-22T02:59:49.051Z,15.30
2019-03-22T03:02:19.034Z,14.00
2019-03-22T03:04:49.794Z,14.33
2019-03-22T03:07:19.791Z,14.00
2019-03-22T03:09:50.573Z,13.63
2019-03-22T03:12:20.527Z,14.13
2019-03-22T03:14:51.292Z,14.33
2019-03-22T03:17:21.287Z,13.87
2019-03-22T03:19:52.077Z,14.53
2019-03-22T03:22:22.951Z,13.90
2019-03-22T03:24:53.808Z,13.70
2019-03-22T03:27:24.687Z,13.50
2019-03-22T03:29:55.548Z,14.20
2019-03-22T03:32:26.408Z,13.87
2019-03-22T03:34:57.374Z,15.33
2019-03-22T03:37:28.231Z,15.43
2019-03-22T03:39:59.104Z,14.33
2019-03-22T03:42:29.273Z,14.60
2019-03-22T03:45:00.033Z,15.43
2019-03-22T03:47:30.884Z,15.50
2019-03-22T03:50:01.772Z,15.93
2019-03-22T03:52:31.736Z,16.23
2019-03-22T03:55:02.512Z,17.07
2019-03-22T03:57:33.359Z,16.40
2019-03-22T04:00:05.007Z,17.70
2019-03-22T04:02:35.883Z,16.43
2019-03-22T04:05:06.932Z,17.27
2019-03-22T04:07:37.837Z,17.13
2019-03-22T04:10:09.832Z,17.87
2019-03-22T04:12:39.791Z,17.23
2019-03-22T04:15:09.652Z,17.57
2019-03-22T04:17:39.502Z,16.70
2019-03-22T04:20:10.494Z,17.70
2019-03-22T04:22:41.346Z,16.27
2019-03-22T04:25:12.248Z,16.03
2019-03-22T04:27:43.130Z,17.03
2019-03-22T04:30:14.233Z,16.07
2019-03-22T04:32:44.192Z,17.70
2019-03-22T04:35:14.144Z,17.30
2019-03-22T04:37:44.934Z,17.97
2019-03-22T04:40:21.576Z,18.87
2019-03-22T04:42:52.387Z,18.17
2019-03-22T04:45:23.581Z,17.30
2019-03-22T04:47:55.681Z,17.20
2019-03-22T04:50:28.552Z,16.23
2019-03-22T04:53:00.431Z,16.13
2019-03-22T04:55:33.399Z,17.37
2019-03-22T04:58:04.055Z,16.50
2019-03-22T05:00:35.811Z,17.13
2019-03-22T05:03:06.539Z,16.67
2019-03-22T05:05:37.495Z,17.67
2019-03-22T05:08:09.295Z,17.43
2019-03-22T05:10:40.542Z,16.93
2019-03-22T05:13:14.425Z,17.63
2019-03-22T05:15:44.767Z,18.50
2019-03-22T05:18:15.660Z,16.83
2019-03-22T05:20:48.335Z,17.23
2019-03-22T05:23:21.883Z,17.97
2019-03-22T05:25:55.743Z,18.30
2019-03-22T05:28:26.919Z,19.50
2019-03-22T05:31:10.912Z,19.50
2019-03-22T05:33:41.664Z,19.53
2019-03-22T05:36:12.566Z,20.57
2019-03-22T05:38:43.416Z,21.50
2019-03-22T05:41:13.843Z,21.30
2019-03-22T05:43:44.797Z,20.60
2019-03-22T05:46:14.743Z,19.90
2019-03-22T05:48:45.523Z,19.63
2019-03-22T05:51:16.374Z,18.33
2019-03-22T05:53:47.232Z,19.03
2019-03-22T05:56:18.111Z,17.80
2019-03-22T05:58:48.974Z,18.63
2019-03-22T06:01:19.843Z,18.37
2019-03-22T06:03:50.699Z,19.40
2019-03-22T06:06:21.846Z,18.47
2019-03-22T06:08:52.720Z,19.00
2019-03-22T06:11:22.667Z,19.23
2019-03-22T06:13:53.520Z,20.37
2019-03-22T06:16:23.474Z,20.07
2019-03-22T06:18:54.297Z,20.20
2019-03-22T06:21:25.146Z,21.87
2019-03-22T06:23:55.063Z,20.03
2019-03-22T06:26:25.831Z,19.93
2019-03-22T06:28:56.859Z,20.83
2019-03-22T06:31:26.809Z,20.93
2019-03-22T06:33:57.659Z,20.83
2019-03-22T06:36:27.637Z,19.97
2019-03-22T06:38:57.491Z,21.43
2019-03-22T06:41:28.296Z,19.83
2019-03-22T06:43:58.235Z,18.17
2019-03-22T06:46:29.039Z,19.23
2019-03-22T06:48:58.999Z,17.30
2019-03-22T06:51:29.794Z,18.20
2019-03-22T06:53:59.759Z,16.90
2019-03-22T06:56:30.547Z,17.07
2019-03-22T06:59:00.499Z,17.07
2019-03-22T07:01:31.265Z,16.27
2019-03-22T07:04:02.160Z,16.83
2019-03-22T07:06:32.107Z,16.80
2019-03-22T07:09:02.908Z,17.10
2019-03-22T07:11:33.796Z,16.43
2019-03-22T07:14:04.690Z,17.07
2019-03-22T07:16:34.663Z,16.47
2019-03-22T07:19:05.743Z,16.77
2019-03-22T07:21:35.740Z,17.33
2019-03-22T07:24:06.732Z,16.20
2019-03-22T07:26:37.617Z,17.50
2019-03-22T07:29:07.564Z,16.40
2019-03-22T07:31:38.380Z,17.47
2019-03-22T07:34:08.336Z,17.03
2019-03-22T07:36:38.243Z,17.30
2019-03-22T07:39:08.434Z,17.07
2019-03-22T07:41:38.289Z,16.63
2019-03-22T07:44:08.145Z,17.03
2019-03-22T07:46:38.006Z,16.37
2019-03-22T07:49:08.720Z,16.03
2019-03-22T07:51:39.612Z,16.63
2019-03-22T07:54:09.563Z,16.50
2019-03-22T07:56:40.106Z,17.47
2019-03-22T07:59:10.853Z,17.07
2019-03-22T08:01:41.724Z,16.97
2019-03-22T08:04:12.582Z,16.07
2019-03-22T08:06:43.458Z,16.53
2019-03-22T08:09:14.360Z,16.07
2019-03-22T08:11:44.320Z,17.07
2019-03-22T08:14:16.325Z,16.53
2019-03-22T08:16:46.675Z,16.13
2019-03-22T08:19:17.564Z,16.17
2019-03-22T08:21:48.508Z,16.40
2019-03-22T08:24:19.348Z,15.63
2019-03-22T08:26:50.236Z,17.00
2019-03-22T08:29:21.198Z,17.23
2019-03-22T08:31:52.064Z,16.83
2019-03-22T08:34:22.001Z,16.93
2019-03-22T08:36:52.801Z,16.50
2019-03-22T08:39:22.743Z,17.90
2019-03-22T08:41:53.530Z,17.50
2019-03-22T08:44:24.408Z,17.37
2019-03-22T08:46:54.377Z,17.80
2019-03-22T08:49:24.354Z,17.93
2019-03-22T08:51:55.333Z,17.53
2019-03-22T08:54:25.244Z,17.20
2019-03-22T08:56:55.142Z,18.10
2019-03-22T08:59:24.992Z,18.10
2019-03-22T09:01:55.767Z,18.67
2019-03-22T09:04:25.707Z,18.32
2019-03-22T09:06:58.933Z,17.90
2019-03-22T09:09:40.732Z,18.90
2019-03-22T09:12:00.701Z,18.33
2019-03-22T09:14:31.466Z,18.67
2019-03-22T09:17:02.360Z,19.60
2019-03-22T09:19:33.259Z,18.48
2019-03-22T09:22:04.135Z,18.57
2019-03-22T09:24:38.990Z,18.83
2019-03-22T09:27:05.855Z,19.20
2019-03-22T09:29:36.661Z,19.87
2019-03-22T09:32:06.643Z,20.07
2019-03-22T09:34:37.402Z,19.83
2019-03-22T09:37:08.993Z,18.97
2019-03-22T09:39:39.999Z,18.17
2019-03-22T09:42:10.928Z,19.37
2019-03-22T09:44:45.114Z,19.17
2019-03-22T09:47:16.229Z,19.87
2019-03-22T09:49:44.976Z,17.80
2019-03-22T09:52:14.857Z,19.57
2019-03-22T09:54:45.627Z,18.87
2019-03-22T09:57:15.583Z,19.43
2019-03-22T09:59:46.421Z,18.93
2019-03-22T10:02:16.385Z,18.50
2019-03-22T10:04:47.123Z,18.30
2019-03-22T10:07:17.173Z,19.83
2019-03-22T10:09:47.042Z,17.93
2019-03-22T10:12:17.103Z,17.37
2019-03-22T10:14:47.932Z,18.00
2019-03-22T10:17:17.970Z,17.87
2019-03-22T10:19:48.759Z,17.53
2019-03-22T10:22:19.624Z,18.37
2019-03-22T10:24:50.398Z,19.43
2019-03-22T10:27:21.296Z,28.53
2019-03-22T10:29:52.200Z,18.33
2019-03-22T10:32:23.871Z,19.70
2019-03-22T10:34:54.650Z,21.10
2019-03-22T10:37:25.505Z,19.30
2019-03-22T10:39:55.539Z,19.73
2019-03-22T10:42:25.375Z,20.47
2019-03-22T10:44:55.349Z,20.40
2019-03-22T10:47:26.150Z,21.27
2019-03-22T10:49:56.079Z,20.57
2019-03-22T10:52:26.855Z,21.12
2019-03-22T10:54:56.860Z,20.43
2019-03-22T10:57:26.722Z,21.17
2019-03-22T10:59:56.588Z,22.53
2019-03-22T11:02:27.387Z,20.53
2019-03-22T11:04:57.336Z,21.87
2019-03-22T11:07:28.239Z,20.40
2019-03-22T11:09:58.194Z,21.33
2019-03-22T11:12:28.935Z,23.13
2019-03-22T11:14:59.816Z,23.80
2019-03-22T11:17:30.684Z,24.10
2019-03-22T11:20:01.704Z,24.70
2019-03-22T11:22:32.567Z,24.98
2019-03-22T11:25:02.615Z,24.47
2019-03-22T11:27:33.507Z,23.70
2019-03-22T11:30:03.760Z,23.73
2019-03-22T11:32:33.644Z,25.20
2019-03-22T11:35:03.674Z,25.27
2019-03-22T11:37:34.567Z,27.53
2019-03-22T11:40:05.455Z,27.63
2019-03-22T11:42:35.333Z,26.13
2019-03-22T11:45:08.045Z,26.37
2019-03-22T11:47:39.204Z,27.87
2019-03-22T11:50:10.501Z,26.93
2019-03-22T11:52:40.440Z,28.23
2019-03-22T11:55:11.687Z,26.87
2019-03-22T11:57:42.886Z,27.90
2019-03-22T12:00:14.767Z,28.03
2019-03-22T12:02:47.255Z,28.67
2019-03-22T12:05:18.448Z,30.87
2019-03-22T12:07:49.255Z,30.23
2019-03-22T12:10:19.322Z,30.07
2019-03-22T12:12:50.082Z,30.27
2019-03-22T12:15:21.516Z,30.23
2019-03-22T12:17:52.493Z,30.03
2019-03-22T12:20:24.295Z,29.37
2019-03-22T12:22:55.880Z,29.93
2019-03-22T12:25:26.143Z,32.80
2019-03-22T12:27:56.927Z,32.03
2019-03-22T12:30:27.827Z,30.87
2019-03-22T12:32:58.135Z,33.13
2019-03-22T12:35:28.027Z,33.27
2019-03-22T12:37:57.884Z,32.10
2019-03-22T12:40:27.756Z,32.83
2019-03-22T12:42:57.603Z,33.93
2019-03-22T12:45:28.237Z,35.37
2019-03-22T12:47:58.187Z,32.93
2019-03-22T12:50:28.153Z,34.27
2019-03-22T12:52:58.012Z,34.00
2019-03-22T12:55:29.024Z,33.67
2019-03-22T12:57:59.913Z,34.07
2019-03-22T13:00:30.918Z,35.93
2019-03-22T13:03:01.799Z,35.05
2019-03-22T13:05:32.729Z,34.97
2019-03-22T13:08:02.690Z,35.20
2019-03-22T13:10:33.494Z,36.20
2019-03-22T13:13:03.471Z,38.23
2019-03-22T13:15:34.273Z,40.00
2019-03-22T13:18:05.411Z,39.20
2019-03-22T13:20:36.294Z,38.17
2019-03-22T13:23:07.295Z,38.77
2019-03-22T13:25:38.185Z,40.07
2019-03-22T13:28:09.083Z,39.13
2019-03-22T13:30:40.006Z,40.87
2019-03-22T13:33:10.884Z,41.27
2019-03-22T13:35:40.822Z,41.13
2019-03-22T13:38:11.596Z,41.40
2019-03-22T13:40:42.490Z,40.93
2019-03-22T13:43:12.449Z,41.30
2019-03-22T13:45:43.244Z,41.90
2019-03-22T13:48:13.195Z,40.03
2019-03-22T13:50:44.023Z,41.23
2019-03-22T13:53:13.959Z,39.93
2019-03-22T13:55:43.863Z,43.23
2019-03-22T13:58:13.718Z,42.70
2019-03-22T14:00:44.554Z,42.90
2019-03-22T14:03:14.472Z,43.13
2019-03-22T14:05:45.283Z,43.03
2019-03-22T14:08:15.229Z,43.23
2019-03-22T14:10:45.102Z,40.67
2019-03-22T14:13:14.934Z,41.43
2019-03-22T14:15:45.756Z,39.90
2019-03-22T14:18:16.626Z,41.00
2019-03-22T14:20:46.594Z,40.25
2019-03-22T14:23:16.458Z,42.03
2019-03-22T14:25:47.239Z,43.60
2019-03-22T14:28:18.127Z,42.07
2019-03-22T14:30:49.023Z,40.80
2019-03-22T14:33:19.951Z,39.67
2019-03-22T14:35:49.931Z,39.03
2019-03-22T14:38:20.759Z,36.80
2019-03-22T14:40:50.764Z,35.13
2019-03-22T14:43:22.211Z,34.87
2019-03-22T14:45:52.226Z,36.73
2019-03-22T14:48:23.167Z,36.40
2019-03-22T14:50:53.043Z,34.77
2019-03-22T14:53:23.825Z,38.43
2019-03-22T14:55:55.210Z,37.87
2019-03-22T14:58:26.113Z,38.40
2019-03-22T15:00:57.007Z,39.77
2019-03-22T15:03:28.516Z,41.07
2019-03-22T15:05:58.482Z,40.90
2019-03-22T15:08:29.366Z,42.73
2019-03-22T15:11:00.250Z,40.23
2019-03-22T15:13:35.358Z,42.13
2019-03-22T15:16:30.519Z,40.63
2019-03-22T15:19:17.927Z,40.40
2019-03-22T15:22:13.423Z,42.30
2019-03-22T15:25:05.161Z,38.80
2019-03-22T15:27:52.707Z,38.87
2019-03-22T15:30:42.484Z,39.13
2019-03-22T15:33:34.442Z,38.17
2019-03-22T15:36:24.314Z,38.10
2019-03-22T15:42:03.383Z,36.80
2019-03-22T15:44:34.257Z,38.15
2019-03-22T15:47:04.322Z,37.30
2019-03-22T15:49:34.108Z,38.00
2019-03-22T15:52:04.892Z,36.70
2019-03-22T15:54:35.744Z,37.37
2019-03-22T15:57:05.759Z,38.20
2019-03-22T15:59:36.536Z,37.87
2019-03-22T16:02:07.446Z,38.57
2019-03-22T16:04:37.387Z,39.57
2019-03-22T16:07:07.187Z,39.67
2019-03-22T16:09:37.982Z,40.63
2019-03-22T16:12:07.943Z,39.90
2019-03-22T16:14:38.748Z,37.27
2019-03-22T16:17:09.703Z,36.53
2019-03-22T16:19:40.590Z,37.73
2019-03-22T16:22:11.527Z,35.80
2019-03-22T16:24:41.471Z,36.03
2019-03-22T16:27:11.371Z,35.13
2019-03-22T16:29:41.219Z,32.40
2019-03-22T16:32:12.019Z,31.40
2019-03-22T16:34:43.012Z,30.23
2019-03-22T16:37:13.935Z,31.50
2019-03-22T16:39:44.337Z,29.60
2019-03-22T16:42:14.186Z,28.63
2019-03-22T16:44:44.958Z,29.83
2019-03-22T16:47:14.967Z,25.40
2019-03-22T16:49:44.860Z,26.57
2019-03-22T16:52:15.643Z,25.43
2019-03-22T16:54:45.678Z,26.93
2019-03-22T16:57:15.587Z,25.27
2019-03-22T16:59:46.379Z,24.77
2019-03-22T17:02:17.622Z,27.00
2019-03-22T17:04:48.729Z,25.63
2019-03-22T17:07:18.630Z,24.87
2019-03-22T17:09:49.644Z,24.00
2019-03-22T17:12:21.424Z,25.33
2019-03-22T17:14:51.751Z,24.00
2019-03-22T17:17:22.539Z,24.70
2019-03-22T17:19:52.914Z,20.97
2019-03-22T17:22:22.769Z,24.97
2019-03-22T17:24:52.987Z,22.77
2019-03-22T17:27:22.845Z,20.43
2019-03-22T17:29:52.719Z,21.13
2019-03-22T17:32:22.660Z,22.20
2019-03-22T17:34:52.522Z,21.40
2019-03-22T17:37:22.423Z,21.43
2019-03-22T17:39:52.318Z,21.50
2019-03-22T17:42:23.118Z,21.13
2019-03-22T17:44:53.058Z,21.23
2019-03-22T17:47:22.947Z,22.93
2019-03-22T17:49:52.883Z,22.03
2019-03-22T17:52:22.732Z,21.87
2019-03-22T17:54:53.510Z,19.40
2019-03-22T17:57:23.479Z,19.37
2019-03-22T17:59:53.349Z,19.47
2019-03-22T18:02:24.133Z,20.57
2019-03-22T18:04:55.022Z,19.47
2019-03-22T18:07:25.057Z,20.20
2019-03-22T18:09:55.842Z,19.03
2019-03-22T18:12:26.663Z,19.77
2019-03-22T18:14:57.541Z,17.87
2019-03-22T18:17:28.437Z,19.77
2019-03-22T18:19:58.539Z,20.77
2019-03-22T18:22:30.366Z,21.50
2019-03-22T18:25:00.920Z,21.63
2019-03-22T18:27:30.914Z,21.63
2019-03-22T18:30:00.958Z,21.77
2019-03-22T18:32:30.814Z,20.67
2019-03-22T18:35:01.784Z,20.60
2019-03-22T18:37:31.744Z,21.13
2019-03-22T18:40:02.624Z,20.33
2019-03-22T18:42:32.581Z,20.20
2019-03-22T18:45:02.526Z,20.70
2019-03-22T18:47:32.399Z,21.77
2019-03-22T18:50:02.206Z,22.67
2019-03-22T18:52:32.099Z,23.50
2019-03-22T18:55:01.908Z,21.93
2019-03-22T18:57:31.780Z,23.53
2019-03-22T19:00:01.651Z,23.23
2019-03-22T19:02:31.487Z,24.17
2019-03-22T19:05:01.545Z,23.40
2019-03-22T19:07:31.414Z,24.20
2019-03-22T19:10:01.523Z,24.53
2019-03-22T19:12:31.372Z,24.40
2019-03-22T19:15:01.553Z,23.70
2019-03-22T19:17:32.328Z,23.80
2019-03-22T19:20:02.289Z,23.23
2019-03-22T19:22:33.121Z,23.77
2019-03-22T19:25:04.313Z,23.90
2019-03-22T19:27:34.288Z,24.37
2019-03-22T19:30:06.548Z,24.17
2019-03-22T19:32:36.514Z,23.37
2019-03-22T19:35:07.091Z,24.47
2019-03-22T19:37:37.919Z,23.57
2019-03-22T19:40:08.965Z,23.07
2019-03-22T19:42:38.907Z,22.00
2019-03-22T19:45:08.895Z,23.17
2019-03-22T19:47:39.660Z,23.97
2019-03-22T19:50:10.699Z,23.33
2019-03-22T19:52:42.908Z,22.93
2019-03-22T19:55:14.128Z,23.13
2019-03-22T19:57:44.106Z,23.67
2019-03-22T20:00:14.070Z,24.23
2019-03-22T20:02:43.885Z,26.10
2019-03-22T20:05:21.426Z,24.03
2019-03-22T20:07:51.387Z,24.17
2019-03-22T20:10:22.176Z,26.10
2019-03-22T20:12:52.139Z,25.70
2019-03-22T20:15:21.971Z,26.27
2019-03-22T20:17:52.756Z,25.53
2019-03-22T20:20:22.686Z,27.13
2019-03-22T20:22:53.485Z,24.40
2019-03-22T20:25:24.363Z,24.37
2019-03-22T20:27:54.274Z,24.10
2019-03-22T20:30:24.986Z,24.10
2019-03-22T20:32:54.942Z,24.73
2019-03-22T20:35:24.796Z,25.10
2019-03-22T20:37:54.709Z,24.77
2019-03-22T20:40:24.572Z,23.83
2019-03-22T20:42:54.436Z,24.37
2019-03-22T20:45:24.662Z,24.60
2019-03-22T20:47:54.583Z,24.03
2019-03-22T20:50:35.129Z,22.07
2019-03-22T20:52:57.875Z,22.43
2019-03-22T20:55:27.843Z,24.27
2019-03-22T20:57:59.043Z,23.63
2019-03-22T21:00:29.891Z,24.27
2019-03-22T21:03:00.775Z,23.53
2019-03-22T21:05:31.650Z,22.10
2019-03-22T21:08:01.603Z,23.97
2019-03-22T21:10:32.389Z,23.40
2019-03-22T21:13:03.284Z,22.97
2019-03-22T21:15:34.148Z,22.80
2019-03-22T21:18:05.011Z,22.67
2019-03-22T21:20:35.871Z,24.87
2019-03-22T21:23:05.877Z,23.73
2019-03-22T21:25:36.653Z,24.67
2019-03-22T21:28:07.627Z,24.37
2019-03-22T21:30:38.497Z,25.07
2019-03-22T21:33:08.461Z,24.57
2019-03-22T21:35:38.340Z,25.93
2019-03-22T21:38:11.125Z,24.47
2019-03-22T21:40:41.613Z,26.00
2019-03-22T21:43:12.643Z,25.93
2019-03-22T21:45:43.617Z,25.43
2019-03-22T21:48:13.582Z,26.27
2019-03-22T21:50:44.367Z,27.27
2019-03-22T21:53:14.475Z,27.33
2019-03-22T21:55:44.503Z,26.13
2019-03-22T21:58:14.478Z,27.70
2019-03-22T22:00:45.398Z,26.70
2019-03-22T22:03:15.404Z,26.87
2019-03-22T22:05:48.118Z,27.83
2019-03-22T22:08:16.851Z,26.63
2019-03-22T22:10:46.698Z,27.73
2019-03-22T22:13:17.996Z,27.10
2019-03-22T22:15:49.036Z,27.57
2019-03-22T22:18:20.335Z,27.17
2019-03-22T22:20:51.299Z,28.67
2019-03-22T22:23:22.365Z,29.33
2019-03-22T22:25:52.813Z,30.67
2019-03-22T22:28:23.007Z,30.90
2019-03-22T22:30:53.935Z,31.17
2019-03-22T22:33:25.076Z,31.33
2019-03-22T22:35:58.795Z,30.43
2019-03-22T22:38:27.517Z,30.73
2019-03-22T22:40:58.446Z,31.67
2019-03-22T22:43:28.383Z,32.07
2019-03-22T22:45:58.387Z,33.07
2019-03-22T22:48:31.279Z,30.17
2019-03-22T22:51:02.149Z,30.87
2019-03-22T22:53:33.077Z,32.20
2019-03-22T22:56:03.965Z,29.97
2019-03-22T22:58:34.878Z,30.83
2019-03-22T23:01:05.855Z,31.40
2019-03-22T23:03:36.737Z,30.30
2019-03-22T23:06:09.641Z,30.93
2019-03-22T23:08:39.201Z,31.63
2019-03-22T23:11:09.981Z,32.67
2019-03-22T23:13:39.935Z,30.67
2019-03-22T23:16:09.824Z,30.97
2019-03-22T23:18:40.598Z,30.20
2019-03-22T23:21:11.475Z,32.47
2019-03-22T23:23:42.346Z,29.63
2019-03-22T23:26:13.277Z,31.80
2019-03-22T23:28:45.946Z,30.67
2019-03-22T23:31:16.842Z,31.97
2019-03-22T23:33:47.709Z,31.50
2019-03-22T23:36:20.540Z,32.23
2019-03-22T23:38:50.528Z,30.10
2019-03-22T23:41:21.770Z,30.20
2019-03-22T23:43:52.638Z,29.77
2019-03-22T23:46:22.618Z,31.40
2019-03-22T23:48:53.382Z,28.93
2019-03-22T23:51:24.246Z,30.23
2019-03-22T23:53:55.149Z,29.00
2019-03-22T23:56:26.021Z,28.33
2019-03-22T23:58:57.041Z,31.10
